Time;durP1;ratioP1;P1;durP2;ratioP2;P2;SDS_P1;SDS_P2;PMS_P1;PMS_P2;Temp;Humidity;BMP_temperature;BMP_pressure;BME280_temperature;BME280_humidity;BME280_pressure;Samples;Min_cycle;Max_cycle;Signal;HPM_P1;HPM_P2
2021/07/05 00:00:13;;;;;;;3.67;1.77;;;;;;;;;;5068756;28;20055;-76
2021/07/05 00:02:57;;;;;;;3.08;2.13;;;;;;;;;;5080912;28;20054;-76
2021/07/05 00:05:42;;;;;;;2.22;1.70;;;;;;;;;;5054269;28;20544;-76
2021/07/05 00:08:26;;;;;;;3.38;2.00;;;;;;;;;;5073507;28;20094;-76
2021/07/05 00:11:11;;;;;;;4.63;1.90;;;;;;;;;;5063616;28;20144;-77
2021/07/05 00:13:55;;;;;;;3.30;2.03;;;;;;;;;;5063570;28;20082;-76
2021/07/05 00:16:40;;;;;;;2.88;1.80;;;;;;;;;;5070384;28;20521;-76
2021/07/05 00:19:25;;;;;;;5.25;1.70;;;;;;;;;;5082755;28;20050;-76
2021/07/05 00:22:09;;;;;;;2.97;1.75;;;;;;;;;;5081976;28;20157;-76
2021/07/05 00:24:54;;;;;;;3.05;2.08;;;;;;;;;;5068098;28;20170;-76
2021/07/05 00:27:38;;;;;;;2.38;1.90;;;;;;;;;;5076725;28;20568;-76
2021/07/05 00:30:23;;;;;;;2.17;1.70;;;;;;;;;;5065767;28;20088;-75
2021/07/05 00:33:08;;;;;;;2.83;1.90;;;;;;;;;;5079703;28;20128;-76
2021/07/05 00:35:53;;;;;;;2.47;1.83;;;;;;;;;;5078315;28;20529;-76
2021/07/05 00:38:37;;;;;;;2.65;1.80;;;;;;;;;;5065988;28;20074;-76
2021/07/05 00:41:21;;;;;;;2.95;2.00;;;;;;;;;;5075252;28;20081;-75
2021/07/05 00:44:06;;;;;;;2.17;1.70;;;;;;;;;;5080206;28;20035;-75
2021/07/05 00:46:50;;;;;;;2.40;1.70;;;;;;;;;;5078726;28;20585;-76
2021/07/05 00:49:35;;;;;;;3.67;1.90;;;;;;;;;;5066280;28;20064;-76
2021/07/05 00:52:19;;;;;;;3.53;1.85;;;;;;;;;;5073414;28;20110;-76
2021/07/05 00:55:04;;;;;;;3.15;1.98;;;;;;;;;;5070282;28;20104;-76
2021/07/05 00:57:49;;;;;;;3.08;1.88;;;;;;;;;;5060182;28;20093;-76
2021/07/05 01:00:34;;;;;;;2.47;1.75;;;;;;;;;;5076235;28;20046;-75
2021/07/05 01:03:19;;;;;;;5.03;2.17;;;;;;;;;;5070271;28;20121;-76
2021/07/05 01:06:04;;;;;;;4.35;2.10;;;;;;;;;;5085386;28;20169;-76
2021/07/05 01:08:48;;;;;;;3.00;1.67;;;;;;;;;;5070053;28;20031;-76
2021/07/05 01:11:33;;;;;;;2.70;1.77;;;;;;;;;;5068961;28;20039;-75
2021/07/05 01:14:18;;;;;;;3.00;1.70;;;;;;;;;;5069736;28;20040;-76
2021/07/05 01:17:03;;;;;;;2.75;1.90;;;;;;;;;;5072686;28;20047;-75
2021/07/05 01:19:48;;;;;;;2.28;1.70;;;;;;;;;;5066583;28;20431;-77
2021/07/05 01:22:33;;;;;;;2.45;1.70;;;;;;;;;;5064723;28;20128;-76
2021/07/05 01:25:18;;;;;;;2.42;1.83;;;;;;;;;;5066274;28;20034;-76
2021/07/05 01:28:03;;;;;;;2.75;1.83;;;;;;;;;;5082951;28;20070;-76
2021/07/05 01:30:48;;;;;;;2.50;1.77;;;;;;;;;;5061585;28;20149;-76
2021/07/05 01:33:33;;;;;;;3.40;1.98;;;;;;;;;;5066896;28;20533;-76
2021/07/05 01:36:17;;;;;;;2.50;1.90;;;;;;;;;;5069902;28;20027;-76
2021/07/05 01:39:02;;;;;;;2.80;2.00;;;;;;;;;;5048179;28;20118;-76
2021/07/05 01:41:47;;;;;;;3.03;1.80;;;;;;;;;;5069187;28;20051;-76
2021/07/05 01:44:32;;;;;;;2.92;1.88;;;;;;;;;;5071383;28;20507;-76
2021/07/05 01:47:16;;;;;;;3.38;1.80;;;;;;;;;;5067806;28;21810;-76
2021/07/05 01:50:01;;;;;;;2.85;1.83;;;;;;;;;;5085853;28;20127;-76
2021/07/05 01:52:46;;;;;;;2.92;1.80;;;;;;;;;;5069363;28;20101;-76
2021/07/05 01:55:32;;;;;;;2.00;1.48;;;;;;;;;;5071774;28;20044;-75
2021/07/05 01:58:17;;;;;;;2.83;1.60;;;;;;;;;;5083348;28;20760;-76
2021/07/05 02:01:02;;;;;;;2.83;1.70;;;;;;;;;;5071555;28;20123;-76
2021/07/05 02:03:46;;;;;;;3.35;1.80;;;;;;;;;;5051040;28;20036;-76
2021/07/05 02:06:31;;;;;;;2.60;1.58;;;;;;;;;;5076401;28;20056;-75
2021/07/05 02:09:16;;;;;;;2.30;1.60;;;;;;;;;;5086757;28;20066;-76
2021/07/05 02:12:01;;;;;;;4.82;1.83;;;;;;;;;;5078542;28;20094;-76
2021/07/05 02:14:45;;;;;;;3.85;1.65;;;;;;;;;;5067400;28;20220;-76
2021/07/05 02:17:30;;;;;;;2.67;1.70;;;;;;;;;;5056502;28;20035;-76
2021/07/05 02:20:16;;;;;;;2.83;1.80;;;;;;;;;;5067813;28;20039;-76
2021/07/05 02:23:01;;;;;;;2.65;1.70;;;;;;;;;;5082370;28;20438;-76
2021/07/05 02:25:46;;;;;;;2.53;1.50;;;;;;;;;;5076313;28;20489;-76
2021/07/05 02:28:31;;;;;;;2.83;1.52;;;;;;;;;;5070017;28;20035;-76
2021/07/05 02:31:15;;;;;;;3.10;1.90;;;;;;;;;;5071568;28;20390;-76
2021/07/05 02:34:00;;;;;;;3.33;1.73;;;;;;;;;;5058980;28;20131;-76
2021/07/05 02:36:45;;;;;;;3.55;1.70;;;;;;;;;;5066732;28;20096;-75
2021/07/05 02:39:29;;;;;;;3.65;1.50;;;;;;;;;;5069855;28;20441;-76
2021/07/05 02:42:14;;;;;;;3.10;1.88;;;;;;;;;;5076989;28;20055;-76
2021/07/05 02:44:59;;;;;;;4.75;1.95;;;;;;;;;;5069035;28;20882;-76
2021/07/05 02:47:43;;;;;;;3.13;1.63;;;;;;;;;;5072612;28;20035;-76
2021/07/05 02:50:28;;;;;;;2.60;1.50;;;;;;;;;;5067958;28;20058;-76
2021/07/05 02:53:13;;;;;;;2.50;1.45;;;;;;;;;;5046257;28;20043;-76
2021/07/05 02:55:57;;;;;;;5.07;1.88;;;;;;;;;;5061842;28;20043;-76
2021/07/05 02:58:42;;;;;;;4.20;1.67;;;;;;;;;;5065079;28;20046;-76
2021/07/05 03:01:27;;;;;;;2.88;1.58;;;;;;;;;;5079023;28;20543;-76
2021/07/05 03:04:12;;;;;;;3.85;1.70;;;;;;;;;;5069866;28;20077;-76
2021/07/05 03:06:56;;;;;;;3.25;1.55;;;;;;;;;;5071964;28;20059;-76
2021/07/05 03:09:41;;;;;;;4.80;1.70;;;;;;;;;;5082618;28;20786;-76
2021/07/05 03:12:25;;;;;;;4.47;1.58;;;;;;;;;;5069239;28;20039;-76
2021/07/05 03:15:10;;;;;;;4.22;1.63;;;;;;;;;;5057867;28;20079;-76
2021/07/05 03:17:55;;;;;;;3.63;1.63;;;;;;;;;;5076689;28;20070;-76
2021/07/05 03:20:40;;;;;;;3.75;1.65;;;;;;;;;;5082664;28;20120;-76
2021/07/05 03:23:25;;;;;;;4.05;1.75;;;;;;;;;;5085449;28;20046;-76
2021/07/05 03:26:10;;;;;;;5.97;1.90;;;;;;;;;;5064657;28;20479;-76
2021/07/05 03:28:55;;;;;;;3.92;1.60;;;;;;;;;;5069418;28;20038;-76
2021/07/05 03:31:39;;;;;;;5.60;1.60;;;;;;;;;;5072169;28;20115;-76
2021/07/05 03:34:24;;;;;;;5.90;1.55;;;;;;;;;;5070231;28;20106;-75
2021/07/05 03:37:08;;;;;;;5.47;1.60;;;;;;;;;;5075128;28;20074;-76
2021/07/05 03:39:53;;;;;;;4.18;1.70;;;;;;;;;;5083534;28;20043;-76
2021/07/05 03:42:38;;;;;;;5.68;1.98;;;;;;;;;;5069997;28;20070;-76
2021/07/05 03:45:29;;;;;;;5.00;1.65;;;;;;;;;;5075448;28;20030;-76
2021/07/05 03:48:15;;;;;;;3.25;1.60;;;;;;;;;;5071918;28;20046;-76
2021/07/05 03:50:59;;;;;;;4.05;1.60;;;;;;;;;;5072758;28;20513;-76
2021/07/05 03:53:44;;;;;;;3.95;1.40;;;;;;;;;;5061853;28;20166;-76
2021/07/05 03:56:29;;;;;;;5.78;1.70;;;;;;;;;;5065433;28;20066;-76
2021/07/05 03:59:14;;;;;;;2.97;1.65;;;;;;;;;;5088892;28;20042;-76
2021/07/05 04:01:58;;;;;;;3.70;1.48;;;;;;;;;;5085988;28;20465;-76
2021/07/05 04:04:43;;;;;;;2.40;1.58;;;;;;;;;;5081330;28;20062;-76
2021/07/05 04:07:27;;;;;;;5.65;1.70;;;;;;;;;;5088509;28;20039;-76
2021/07/05 04:10:12;;;;;;;4.38;1.63;;;;;;;;;;5081433;28;20043;-76
2021/07/05 04:12:57;;;;;;;3.30;1.73;;;;;;;;;;5058642;28;20039;-76
2021/07/05 04:15:41;;;;;;;3.97;1.63;;;;;;;;;;5074143;28;20120;-76
2021/07/05 04:18:26;;;;;;;3.28;1.70;;;;;;;;;;5075690;28;20111;-76
2021/07/05 04:21:11;;;;;;;4.05;1.90;;;;;;;;;;5083843;28;20804;-76
2021/07/05 04:23:55;;;;;;;3.42;1.52;;;;;;;;;;5065549;28;20532;-76
2021/07/05 04:26:40;;;;;;;5.72;1.60;;;;;;;;;;5081365;28;20051;-76
2021/07/05 04:29:24;;;;;;;5.68;1.80;;;;;;;;;;5078634;28;20100;-76
2021/07/05 04:32:09;;;;;;;4.32;1.60;;;;;;;;;;5055751;28;20035;-76
2021/07/05 04:34:55;;;;;;;3.58;1.38;;;;;;;;;;5061633;28;20173;-76
2021/07/05 04:37:40;;;;;;;5.18;1.60;;;;;;;;;;5087223;28;20043;-76
2021/07/05 04:40:29;;;;;;;6.05;1.88;;;;;;;;;;5060245;28;20051;-75
2021/07/05 04:43:14;;;;;;;5.30;1.98;;;;;;;;;;5078208;28;20121;-76
2021/07/05 04:46:03;;;;;;;3.40;2.03;;;;;;;;;;5073945;28;20043;-77
2021/07/05 04:48:48;;;;;;;3.65;1.58;;;;;;;;;;5079077;28;20498;-78
2021/07/05 04:51:32;;;;;;;3.55;1.60;;;;;;;;;;5072598;28;20796;-78
2021/07/05 04:54:17;;;;;;;3.55;1.60;;;;;;;;;;5060508;28;20137;-78
2021/07/05 04:57:01;;;;;;;3.80;1.73;;;;;;;;;;5073736;28;20494;-77
2021/07/05 04:59:46;;;;;;;4.93;1.58;;;;;;;;;;5046631;28;20051;-78
2021/07/05 05:02:30;;;;;;;5.22;1.70;;;;;;;;;;5068113;28;20704;-79
2021/07/05 05:05:15;;;;;;;3.88;1.60;;;;;;;;;;5046610;28;20450;-78
2021/07/05 05:07:59;;;;;;;6.38;2.15;;;;;;;;;;5079042;28;20423;-79
2021/07/05 05:10:45;;;;;;;5.25;1.90;;;;;;;;;;5057045;28;20039;-79
2021/07/05 05:13:29;;;;;;;2.88;1.52;;;;;;;;;;5084938;28;20048;-76
2021/07/05 05:16:14;;;;;;;3.53;1.80;;;;;;;;;;5065056;28;20043;-78
2021/07/05 05:18:59;;;;;;;4.53;1.80;;;;;;;;;;5084518;28;20089;-79
2021/07/05 05:21:44;;;;;;;6.20;1.85;;;;;;;;;;5069060;28;20070;-78
2021/07/05 05:24:28;;;;;;;5.82;2.00;;;;;;;;;;5072965;28;20078;-78
2021/07/05 05:27:13;;;;;;;4.70;2.15;;;;;;;;;;5063402;28;20093;-79
2021/07/05 05:29:57;;;;;;;6.28;1.80;;;;;;;;;;5066237;28;20097;-78
2021/07/05 05:32:42;;;;;;;3.83;1.80;;;;;;;;;;5066961;28;20043;-78
2021/07/05 05:35:27;;;;;;;5.80;1.95;;;;;;;;;;5066665;28;20043;-78
2021/07/05 05:38:11;;;;;;;4.75;1.80;;;;;;;;;;5069717;28;20085;-78
2021/07/05 05:40:56;;;;;;;4.18;2.00;;;;;;;;;;5071966;28;20426;-77
2021/07/05 05:43:41;;;;;;;2.80;1.63;;;;;;;;;;5059459;28;20403;-78
2021/07/05 05:46:27;;;;;;;5.28;2.00;;;;;;;;;;5077933;28;20035;-79
2021/07/05 05:49:12;;;;;;;3.75;1.80;;;;;;;;;;5049954;28;20043;-78
2021/07/05 05:51:56;;;;;;;3.80;2.00;;;;;;;;;;5049715;28;20035;-78
2021/07/05 05:54:41;;;;;;;3.78;1.77;;;;;;;;;;5080105;28;20042;-78
2021/07/05 05:57:27;;;;;;;2.75;1.75;;;;;;;;;;5079779;28;20744;-78
2021/07/05 06:00:16;;;;;;;3.85;1.80;;;;;;;;;;5077542;28;20549;-77
2021/07/05 06:03:00;;;;;;;5.32;1.95;;;;;;;;;;5061702;28;20577;-78
2021/07/05 06:05:45;;;;;;;6.43;1.77;;;;;;;;;;5065628;28;20035;-78
2021/07/05 06:08:30;;;;;;;2.65;1.70;;;;;;;;;;5074881;28;20051;-77
2021/07/05 06:11:15;;;;;;;7.95;2.17;;;;;;;;;;5080455;28;20035;-78
2021/07/05 06:14:00;;;;;;;6.43;1.90;;;;;;;;;;5069006;28;20094;-78
2021/07/05 06:16:44;;;;;;;4.78;1.80;;;;;;;;;;5068862;28;20078;-78
2021/07/05 06:19:29;;;;;;;4.70;1.85;;;;;;;;;;5062164;28;20112;-78
2021/07/05 06:22:17;;;;;;;3.35;1.58;;;;;;;;;;5069517;28;20129;-77
2021/07/05 06:25:02;;;;;;;4.63;1.70;;;;;;;;;;5052850;28;20726;-77
2021/07/05 06:27:47;;;;;;;5.70;1.90;;;;;;;;;;5068923;28;20038;-77
2021/07/05 06:30:31;;;;;;;4.18;1.73;;;;;;;;;;5084163;28;20131;-77
2021/07/05 06:33:16;;;;;;;3.47;1.67;;;;;;;;;;5063947;28;20040;-77
2021/07/05 06:36:01;;;;;;;4.05;1.60;;;;;;;;;;5067285;28;20088;-77
2021/07/05 06:38:47;;;;;;;5.78;1.83;;;;;;;;;;5067036;28;20035;-78
2021/07/05 06:41:32;;;;;;;3.55;1.42;;;;;;;;;;5053509;28;20047;-77
2021/07/05 06:44:16;;;;;;;3.90;1.63;;;;;;;;;;5065384;28;20032;-78
2021/07/05 06:47:01;;;;;;;4.47;1.80;;;;;;;;;;5065201;28;20066;-78
2021/07/05 06:49:45;;;;;;;3.78;1.60;;;;;;;;;;5056990;28;20103;-78
2021/07/05 06:52:33;;;;;;;5.25;1.77;;;;;;;;;;5073378;28;20058;-78
2021/07/05 06:55:17;;;;;;;6.07;2.00;;;;;;;;;;5079894;28;20039;-79
2021/07/05 06:58:02;;;;;;;4.13;1.77;;;;;;;;;;5051348;28;20043;-78
2021/07/05 07:00:47;;;;;;;4.90;1.80;;;;;;;;;;5049565;28;20166;-78
2021/07/05 07:03:32;;;;;;;3.22;1.50;;;;;;;;;;5072513;28;20035;-78
2021/07/05 07:06:17;;;;;;;3.55;1.83;;;;;;;;;;5043405;28;20109;-77
2021/07/05 07:09:02;;;;;;;4.35;1.60;;;;;;;;;;5064769;28;20043;-78
2021/07/05 07:11:46;;;;;;;4.07;1.73;;;;;;;;;;5067141;28;20031;-78
2021/07/05 07:14:31;;;;;;;4.70;1.58;;;;;;;;;;5064801;28;20043;-77
2021/07/05 07:20:04;;;;;;;4.82;1.52;;;;;;;;;;5080405;28;20055;-78
2021/07/05 07:22:48;;;;;;;3.85;1.70;;;;;;;;;;5058532;28;20141;-78
2021/07/05 07:25:33;;;;;;;4.03;1.88;;;;;;;;;;5071081;28;20043;-78
2021/07/05 07:28:17;;;;;;;3.13;1.63;;;;;;;;;;5065310;28;20082;-78
2021/07/05 07:31:02;;;;;;;5.63;1.85;;;;;;;;;;5069525;28;20071;-78
2021/07/05 07:33:46;;;;;;;4.30;1.75;;;;;;;;;;5069264;28;20035;-78
2021/07/05 07:36:31;;;;;;;3.08;1.80;;;;;;;;;;5060049;28;20325;-78
2021/07/05 07:39:19;;;;;;;5.60;1.77;;;;;;;;;;5068900;28;20094;-79
2021/07/05 07:42:03;;;;;;;3.65;1.50;;;;;;;;;;5068742;28;20128;-79
2021/07/05 07:44:48;;;;;;;2.38;1.70;;;;;;;;;;5069416;28;20043;-79
2021/07/05 07:47:32;;;;;;;4.32;1.63;;;;;;;;;;5069423;28;20078;-79
2021/07/05 07:50:17;;;;;;;6.13;1.70;;;;;;;;;;5066902;28;20121;-78
2021/07/05 07:53:01;;;;;;;3.53;1.50;;;;;;;;;;5060362;28;20123;-78
2021/07/05 07:55:46;;;;;;;3.65;1.80;;;;;;;;;;5062031;28;20062;-79
2021/07/05 07:58:30;;;;;;;4.57;1.70;;;;;;;;;;5057768;28;20407;-79
2021/07/05 08:01:15;;;;;;;4.47;1.70;;;;;;;;;;5069370;28;20141;-79
2021/07/05 08:03:59;;;;;;;5.97;1.83;;;;;;;;;;5046618;28;20494;-78
2021/07/05 08:06:44;;;;;;;5.68;1.77;;;;;;;;;;5069439;28;20082;-78
2021/07/05 08:09:28;;;;;;;5.97;1.58;;;;;;;;;;5054792;28;20074;-78
2021/07/05 08:12:13;;;;;;;3.38;1.60;;;;;;;;;;5065769;28;20367;-78
2021/07/05 08:14:59;;;;;;;4.80;1.70;;;;;;;;;;5068465;28;20047;-78
2021/07/05 08:17:44;;;;;;;4.07;1.70;;;;;;;;;;5056324;28;20035;-78
2021/07/05 08:20:28;;;;;;;4.35;1.85;;;;;;;;;;5070700;28;20470;-78
2021/07/05 08:23:13;;;;;;;3.58;1.90;;;;;;;;;;5069819;28;20173;-78
2021/07/05 08:25:58;;;;;;;2.72;1.70;;;;;;;;;;5067920;28;20414;-78
2021/07/05 08:28:43;;;;;;;2.78;1.55;;;;;;;;;;5047854;28;20105;-77
2021/07/05 08:31:27;;;;;;;4.28;2.08;;;;;;;;;;5069814;28;20031;-78
2021/07/05 08:34:12;;;;;;;4.32;1.73;;;;;;;;;;5052428;28;20075;-78
2021/07/05 08:36:57;;;;;;;5.32;1.77;;;;;;;;;;5065513;28;20553;-78
2021/07/05 08:39:42;;;;;;;4.75;1.95;;;;;;;;;;5061054;28;20051;-78
2021/07/05 08:42:27;;;;;;;7.15;2.00;;;;;;;;;;5065391;28;20182;-77
2021/07/05 08:45:12;;;;;;;4.70;2.00;;;;;;;;;;5052074;28;20035;-77
2021/07/05 08:47:56;;;;;;;4.65;1.67;;;;;;;;;;5066844;28;20487;-77
2021/07/05 08:50:41;;;;;;;2.78;1.58;;;;;;;;;;5039299;28;20083;-78
2021/07/05 08:53:26;;;;;;;3.95;1.70;;;;;;;;;;5061544;28;20117;-77
2021/07/05 08:56:11;;;;;;;3.83;1.77;;;;;;;;;;5042833;28;20047;-78
2021/07/05 08:58:56;;;;;;;4.53;1.70;;;;;;;;;;5056325;28;20101;-79
2021/07/05 09:01:41;;;;;;;3.55;1.65;;;;;;;;;;5077779;28;20564;-78
2021/07/05 09:04:25;;;;;;;4.40;1.70;;;;;;;;;;5069791;28;20031;-78
2021/07/05 09:07:12;;;;;;;3.72;1.85;;;;;;;;;;5077078;28;20042;-77
2021/07/05 09:09:58;;;;;;;4.55;1.83;;;;;;;;;;5068045;28;20047;-77
2021/07/05 09:12:43;;;;;;;5.07;1.73;;;;;;;;;;5049547;28;20544;-77
2021/07/05 09:15:34;;;;;;;5.20;1.80;;;;;;;;;;5071144;28;20039;-78
2021/07/05 09:18:32;;;;;;;4.28;1.90;;;;;;;;;;5064385;28;20124;-78
2021/07/05 09:21:17;;;;;;;4.43;1.77;;;;;;;;;;5055616;28;20130;-78
2021/07/05 09:24:06;;;;;;;4.03;1.60;;;;;;;;;;5060530;28;20059;-78
2021/07/05 09:26:53;;;;;;;3.92;2.05;;;;;;;;;;5058757;28;20151;-77
2021/07/05 09:29:39;;;;;;;2.80;1.63;;;;;;;;;;5061803;28;20109;-78
2021/07/05 09:32:29;;;;;;;3.60;1.80;;;;;;;;;;5059849;28;20561;-78
2021/07/05 09:35:14;;;;;;;5.75;2.35;;;;;;;;;;5071662;28;20038;-79
2021/07/05 09:38:01;;;;;;;3.97;1.80;;;;;;;;;;5064782;28;20124;-79
2021/07/05 09:40:46;;;;;;;5.45;2.00;;;;;;;;;;5056393;28;20088;-78
2021/07/05 09:43:30;;;;;;;4.28;2.05;;;;;;;;;;5064978;28;20043;-78
2021/07/05 09:46:15;;;;;;;3.92;1.90;;;;;;;;;;5073491;28;20036;-78
2021/07/05 09:49:00;;;;;;;2.88;1.80;;;;;;;;;;5041788;28;20158;-79
2021/07/05 09:51:46;;;;;;;4.97;2.10;;;;;;;;;;5044654;28;20553;-79
2021/07/05 09:54:30;;;;;;;6.13;2.22;;;;;;;;;;5057504;28;20266;-78
2021/07/05 09:57:25;;;;;;;4.63;2.40;;;;;;;;;;5060914;28;20109;-79
2021/07/05 10:00:10;;;;;;;4.68;2.00;;;;;;;;;;5048510;28;20063;-79
2021/07/05 10:02:55;;;;;;;4.05;2.00;;;;;;;;;;5066007;28;20457;-79
2021/07/05 10:05:44;;;;;;;4.97;2.10;;;;;;;;;;5063326;28;20491;-79
2021/07/05 10:08:29;;;;;;;5.28;1.98;;;;;;;;;;5063293;28;20056;-79
2021/07/05 10:11:14;;;;;;;3.45;2.05;;;;;;;;;;5063944;28;20082;-79
2021/07/05 10:14:35;;;;;;;5.80;2.17;;;;;;;;;;5062778;28;20102;-79
2021/07/05 10:17:19;;;;;;;4.93;2.05;;;;;;;;;;5003804;28;20072;-84
2021/07/05 10:20:05;;;;;;;5.00;2.20;;;;;;;;;;5048389;28;20082;-83
2021/07/05 10:22:51;;;;;;;4.10;2.13;;;;;;;;;;5050301;28;20054;-83
2021/07/05 10:25:36;;;;;;;3.70;2.00;;;;;;;;;;5063893;28;20534;-82
2021/07/05 10:28:21;;;;;;;6.00;2.17;;;;;;;;;;5065067;28;20048;-83
2021/07/05 10:31:06;;;;;;;4.13;2.35;;;;;;;;;;5045490;28;20085;-83
2021/07/05 10:33:50;;;;;;;4.80;2.00;;;;;;;;;;5043940;28;20071;-83
2021/07/05 10:36:36;;;;;;;5.55;2.05;;;;;;;;;;5048919;28;21270;-83
2021/07/05 10:39:20;;;;;;;5.45;2.20;;;;;;;;;;5063423;28;20597;-82
2021/07/05 10:42:25;;;;;;;5.13;2.22;;;;;;;;;;5063963;28;20541;-83
2021/07/05 10:45:13;;;;;;;5.82;3.08;;;;;;;;;;5060486;28;20117;-77
2021/07/05 10:47:58;;;;;;;4.90;2.75;;;;;;;;;;5045135;28;20640;-78
2021/07/05 10:50:44;;;;;;;6.20;2.92;;;;;;;;;;5060703;28;20124;-79
2021/07/05 10:53:34;;;;;;;7.13;2.85;;;;;;;;;;5065094;28;20616;-78
2021/07/05 10:56:26;;;;;;;5.03;2.50;;;;;;;;;;5058316;28;20035;-80
2021/07/05 10:59:11;;;;;;;3.72;2.25;;;;;;;;;;5062058;28;20067;-79
2021/07/05 11:01:56;;;;;;;3.88;2.13;;;;;;;;;;5063193;28;20086;-78
2021/07/05 11:04:40;;;;;;;3.10;2.10;;;;;;;;;;5043253;28;20043;-78
2021/07/05 11:07:26;;;;;;;4.30;2.50;;;;;;;;;;5053749;28;20042;-78
2021/07/05 11:10:19;;;;;;;4.47;2.17;;;;;;;;;;5048424;28;20071;-78
2021/07/05 11:13:04;;;;;;;4.18;2.20;;;;;;;;;;5063156;28;20047;-78
2021/07/05 11:15:49;;;;;;;4.47;2.28;;;;;;;;;;5063203;28;20149;-78
2021/07/05 11:18:37;;;;;;;5.70;2.30;;;;;;;;;;5063948;28;20059;-80
2021/07/05 11:21:22;;;;;;;3.72;2.30;;;;;;;;;;5058329;28;20110;-78
2021/07/05 11:24:12;;;;;;;5.35;2.25;;;;;;;;;;5062351;28;20039;-79
2021/07/05 11:26:57;;;;;;;4.55;2.47;;;;;;;;;;5058801;28;20105;-77
2021/07/05 11:29:45;;;;;;;3.28;2.05;;;;;;;;;;5028750;28;20060;-77
2021/07/05 11:32:36;;;;;;;3.83;2.30;;;;;;;;;;5059582;28;20034;-78
2021/07/05 11:35:28;;;;;;;5.85;2.15;;;;;;;;;;5063217;28;20159;-77
2021/07/05 11:38:23;;;;;;;4.20;2.33;;;;;;;;;;5063690;28;20040;-78
2021/07/05 11:41:11;;;;;;;3.40;2.17;;;;;;;;;;5046893;28;20663;-77
2021/07/05 11:43:59;;;;;;;4.30;1.90;;;;;;;;;;5063231;28;20193;-77
2021/07/05 11:46:47;;;;;;;3.33;2.25;;;;;;;;;;5067102;28;20883;-78
2021/07/05 11:49:35;;;;;;;3.13;2.10;;;;;;;;;;5068708;28;20113;-76
2021/07/05 11:52:20;;;;;;;3.55;2.08;;;;;;;;;;5049404;28;20755;-77
2021/07/05 11:55:05;;;;;;;5.28;2.50;;;;;;;;;;5049642;28;20046;-79
2021/07/05 11:57:50;;;;;;;3.65;2.30;;;;;;;;;;5042038;28;20616;-79
2021/07/05 12:00:36;;;;;;;5.45;2.50;;;;;;;;;;5062092;28;20082;-80
2021/07/05 12:03:20;;;;;;;6.68;2.33;;;;;;;;;;5056169;28;20108;-79
2021/07/05 12:06:05;;;;;;;5.32;2.38;;;;;;;;;;5070892;28;20039;-79
2021/07/05 12:08:56;;;;;;;5.78;2.22;;;;;;;;;;5066602;28;20063;-78
2021/07/05 12:11:42;;;;;;;6.25;2.78;;;;;;;;;;5071458;28;20826;-78
2021/07/05 12:14:27;;;;;;;3.72;2.80;;;;;;;;;;5044732;28;20051;-79
2021/07/05 12:17:12;;;;;;;5.72;2.60;;;;;;;;;;5071128;28;20498;-77
2021/07/05 12:19:57;;;;;;;5.85;2.67;;;;;;;;;;5060229;28;20117;-77
2021/07/05 12:22:43;;;;;;;5.35;2.40;;;;;;;;;;5066320;28;20552;-78
2021/07/05 12:25:28;;;;;;;6.38;2.60;;;;;;;;;;5052296;28;20039;-83
2021/07/05 12:28:13;;;;;;;5.50;2.50;;;;;;;;;;5066731;28;20067;-80
2021/07/05 12:30:58;;;;;;;5.38;2.30;;;;;;;;;;5066066;28;20173;-84
2021/07/05 12:33:47;;;;;;;4.55;2.40;;;;;;;;;;5066885;28;20647;-78
2021/07/05 12:36:32;;;;;;;5.35;2.35;;;;;;;;;;5057531;28;21652;-78
2021/07/05 12:39:18;;;;;;;4.53;2.20;;;;;;;;;;5049091;28;20403;-78
2021/07/05 12:42:18;;;;;;;5.60;2.50;;;;;;;;;;5047886;28;20541;-80
2021/07/05 12:45:12;;;;;;;4.32;2.50;;;;;;;;;;5072025;28;20086;-82
2021/07/05 12:48:04;;;;;;;3.95;2.20;;;;;;;;;;5042689;28;20056;-79
2021/07/05 12:50:53;;;;;;;5.00;2.80;;;;;;;;;;5045139;28;20047;-78
2021/07/05 12:53:37;;;;;;;5.28;2.42;;;;;;;;;;5062426;28;20451;-82
2021/07/05 12:56:27;;;;;;;6.03;2.70;;;;;;;;;;5074599;28;20035;-85
2021/07/05 12:59:16;;;;;;;3.33;2.30;;;;;;;;;;5047323;28;20118;-82
2021/07/05 13:02:00;;;;;;;4.25;2.20;;;;;;;;;;5043344;28;20081;-85
2021/07/05 13:04:45;;;;;;;3.92;2.20;;;;;;;;;;5049063;28;20043;-85
2021/07/05 13:07:29;;;;;;;3.90;2.10;;;;;;;;;;5062164;28;20044;-81
2021/07/05 13:10:14;;;;;;;3.88;2.00;;;;;;;;;;5065063;28;20105;-83
2021/07/05 13:13:03;;;;;;;3.30;2.17;;;;;;;;;;5067285;28;20047;-81
2021/07/05 13:15:48;;;;;;;3.17;2.10;;;;;;;;;;5066307;28;20071;-84
2021/07/05 13:18:35;;;;;;;3.25;2.00;;;;;;;;;;5063447;28;20081;-81
2021/07/05 13:21:30;;;;;;;4.95;2.33;;;;;;;;;;5064172;28;20095;-84
2021/07/05 13:24:16;;;;;;;4.53;1.88;;;;;;;;;;5051980;28;20038;-82
2021/07/05 13:27:01;;;;;;;2.78;1.80;;;;;;;;;;5047462;28;20120;-82
2021/07/05 13:29:45;;;;;;;2.67;1.85;;;;;;;;;;5046367;28;20071;-86
2021/07/05 13:32:30;;;;;;;2.60;1.75;;;;;;;;;;5044751;28;20416;-82
2021/07/05 13:35:14;;;;;;;4.72;1.80;;;;;;;;;;5040580;28;20067;-83
2021/07/05 13:38:01;;;;;;;3.08;1.70;;;;;;;;;;5065172;28;20035;-84
2021/07/05 13:40:50;;;;;;;9.40;2.60;;;;;;;;;;5034784;28;20043;-83
2021/07/05 13:43:35;;;;;;;4.15;2.15;;;;;;;;;;5063185;28;20155;-83
2021/07/05 13:46:20;;;;;;;3.90;2.10;;;;;;;;;;5067012;28;20043;-84
2021/07/05 13:49:14;;;;;;;2.72;2.00;;;;;;;;;;5056921;28;20157;-82
2021/07/05 13:51:58;;;;;;;4.20;2.10;;;;;;;;;;5065434;28;20036;-83
2021/07/05 13:54:43;;;;;;;3.92;2.10;;;;;;;;;;5045480;28;20060;-83
2021/07/05 13:57:27;;;;;;;3.92;2.30;;;;;;;;;;5058938;28;20082;-83
2021/07/05 14:00:13;;;;;;;3.55;2.17;;;;;;;;;;5061599;28;20089;-83
2021/07/05 14:02:57;;;;;;;3.00;1.90;;;;;;;;;;5080296;28;20050;-82
2021/07/05 14:05:42;;;;;;;3.50;1.88;;;;;;;;;;5063474;28;20043;-81
2021/07/05 14:08:28;;;;;;;3.70;1.90;;;;;;;;;;5065122;28;20079;-82
2021/07/05 14:11:16;;;;;;;3.70;2.05;;;;;;;;;;5079402;28;20039;-81
2021/07/05 14:14:00;;;;;;;4.63;2.25;;;;;;;;;;5064416;28;20078;-82
2021/07/05 14:16:45;;;;;;;4.22;2.40;;;;;;;;;;5045736;28;20043;-82
2021/07/05 14:19:29;;;;;;;3.40;1.90;;;;;;;;;;5063913;28;20038;-82
2021/07/05 14:22:18;;;;;;;3.05;2.10;;;;;;;;;;5064688;28;20075;-84
2021/07/05 14:25:04;;;;;;;3.30;2.03;;;;;;;;;;5063105;28;20043;-82
2021/07/05 14:27:51;;;;;;;2.85;1.92;;;;;;;;;;5062645;28;20075;-83
2021/07/05 14:30:36;;;;;;;3.22;2.28;;;;;;;;;;5049786;28;20190;-83
2021/07/05 14:33:22;;;;;;;4.60;2.00;;;;;;;;;;5049080;28;20055;-82
2021/07/05 14:36:07;;;;;;;3.38;2.10;;;;;;;;;;5062722;28;20074;-83
2021/07/05 14:38:51;;;;;;;3.15;1.80;;;;;;;;;;5030339;28;20051;-82
2021/07/05 14:41:37;;;;;;;3.85;1.83;;;;;;;;;;5050027;28;20059;-82
2021/07/05 14:44:21;;;;;;;3.08;2.10;;;;;;;;;;5064396;28;20509;-83
2021/07/05 14:47:06;;;;;;;4.75;1.77;;;;;;;;;;5048327;28;20478;-83
2021/07/05 14:49:50;;;;;;;2.60;1.92;;;;;;;;;;5062033;28;20125;-82
2021/07/05 14:52:35;;;;;;;2.65;1.75;;;;;;;;;;5058285;28;20056;-82
2021/07/05 14:55:20;;;;;;;3.03;1.83;;;;;;;;;;5058346;28;20466;-83
2021/07/05 14:58:05;;;;;;;3.30;2.05;;;;;;;;;;5043612;28;20131;-82
2021/07/05 15:00:52;;;;;;;3.03;1.88;;;;;;;;;;5048151;28;20047;-83
2021/07/05 15:03:37;;;;;;;3.63;2.20;;;;;;;;;;5063634;28;20690;-82
2021/07/05 15:06:21;;;;;;;3.22;1.77;;;;;;;;;;5062047;28;20086;-83
2021/07/05 15:09:06;;;;;;;4.13;2.00;;;;;;;;;;5049474;28;20415;-83
2021/07/05 15:11:50;;;;;;;4.75;2.33;;;;;;;;;;5039427;28;20048;-82
2021/07/05 15:14:35;;;;;;;4.97;2.10;;;;;;;;;;5057783;28;20043;-83
2021/07/05 15:17:19;;;;;;;3.13;1.80;;;;;;;;;;5047721;28;20050;-83
2021/07/05 15:20:08;;;;;;;4.68;1.83;;;;;;;;;;5062907;28;20039;-83
2021/07/05 15:22:53;;;;;;;4.65;1.90;;;;;;;;;;5049567;28;20038;-83
2021/07/05 15:25:39;;;;;;;2.78;1.80;;;;;;;;;;5061495;28;20090;-82
2021/07/05 15:28:24;;;;;;;3.63;2.00;;;;;;;;;;5049517;28;20086;-83
2021/07/05 15:31:08;;;;;;;4.55;2.10;;;;;;;;;;5039017;28;20043;-82
2021/07/05 15:33:53;;;;;;;4.15;2.08;;;;;;;;;;5044162;28;20554;-83
2021/07/05 15:36:39;;;;;;;3.72;1.92;;;;;;;;;;5063743;28;20174;-81
2021/07/05 15:39:28;;;;;;;3.35;2.10;;;;;;;;;;5042022;28;20044;-82
2021/07/05 15:42:12;;;;;;;4.65;2.00;;;;;;;;;;5043194;28;20137;-81
2021/07/05 15:44:57;;;;;;;3.92;2.08;;;;;;;;;;5032394;28;20441;-82
2021/07/05 15:47:42;;;;;;;4.07;2.25;;;;;;;;;;5043899;28;20083;-81
2021/07/05 15:50:28;;;;;;;4.53;2.20;;;;;;;;;;5066614;28;20166;-80
2021/07/05 15:53:13;;;;;;;2.25;1.77;;;;;;;;;;5067169;28;20044;-81
2021/07/05 15:55:58;;;;;;;3.28;1.90;;;;;;;;;;5052855;28;20506;-81
2021/07/05 15:58:43;;;;;;;4.25;2.00;;;;;;;;;;5053487;28;20047;-82
2021/07/05 16:01:28;;;;;;;3.65;1.95;;;;;;;;;;5052320;28;20106;-81
2021/07/05 16:04:12;;;;;;;3.92;2.10;;;;;;;;;;5047019;28;20044;-82
2021/07/05 16:06:57;;;;;;;3.45;1.90;;;;;;;;;;5041544;28;20521;-81
2021/07/05 16:09:41;;;;;;;3.83;1.67;;;;;;;;;;5067169;28;20101;-81
2021/07/05 16:12:26;;;;;;;3.47;2.10;;;;;;;;;;5051314;28;20633;-80
2021/07/05 16:15:10;;;;;;;3.30;2.10;;;;;;;;;;5052514;28;20044;-80
2021/07/05 16:17:55;;;;;;;3.50;2.17;;;;;;;;;;5066192;28;20047;-81
2021/07/05 16:20:40;;;;;;;5.22;2.20;;;;;;;;;;5052802;28;20197;-81
2021/07/05 16:23:27;;;;;;;3.70;1.80;;;;;;;;;;5062782;28;20043;-80
2021/07/05 16:26:12;;;;;;;5.32;2.25;;;;;;;;;;5068437;28;20900;-81
2021/07/05 16:28:57;;;;;;;3.08;1.88;;;;;;;;;;5053727;28;20081;-80
2021/07/05 16:31:41;;;;;;;3.58;1.92;;;;;;;;;;5044973;28;20046;-80
2021/07/05 16:34:26;;;;;;;5.90;2.10;;;;;;;;;;5061111;28;20060;-81